Time;durP1;ratioP1;P1;durP2;ratioP2;P2;SDS_P1;SDS_P2;PMS_P1;PMS_P2;Temp;Humidity;BMP_temperature;BMP_pressure;BME280_temperature;BME280_humidity;BME280_pressure;Samples;Min_cycle;Max_cycle;Signal;HPM_P1;HPM_P2
2021/12/31 00:01:31;;;;;;;12.13;3.00;;;;;;;-145.18;100.00;47332.41;5066506;28;20047;-71
2021/12/31 00:03:57;;;;;;;8.00;3.47;;;;;;;-145.18;100.00;47324.59;5067201;28;20040;-71
2021/12/31 00:06:22;;;;;;;9.27;3.43;;;;;;;-145.18;100.00;47310.91;5066872;28;20040;-72
2021/12/31 00:08:48;;;;;;;8.70;3.10;;;;;;;-145.18;100.00;47320.69;5066707;28;20119;-71
2021/12/31 00:11:13;;;;;;;10.27;3.50;;;;;;;-145.18;100.00;47324.59;5066164;28;20052;-71
2021/12/31 00:13:38;;;;;;;12.17;2.77;;;;;;;-145.18;100.00;47346.06;5067409;28;20052;-71
2021/12/31 00:16:04;;;;;;;9.67;3.43;;;;;;;-145.18;100.00;47316.78;5066712;28;20044;-71
2021/12/31 00:18:30;;;;;;;8.67;2.90;;;;;;;-145.18;100.00;47328.50;5066884;28;20500;-71
2021/12/31 00:20:56;;;;;;;11.10;3.40;;;;;;;-145.18;100.00;47312.88;5066820;28;20511;-71
2021/12/31 00:23:25;;;;;;;9.27;3.07;;;;;;;-145.18;100.00;47328.50;5066663;28;20041;-71
2021/12/31 00:25:51;;;;;;;10.27;2.87;;;;;;;-145.18;100.00;47305.06;5066152;28;20545;-71
2021/12/31 00:28:16;;;;;;;6.60;2.63;;;;;;;-145.18;100.00;47336.31;5066972;28;20064;-71
2021/12/31 00:30:42;;;;;;;7.23;2.00;;;;;;;-145.18;100.00;47336.31;5066917;28;20127;-71
2021/12/31 00:33:08;;;;;;;8.23;2.87;;;;;;;-145.18;100.00;47303.09;5065597;28;20409;-71
2021/12/31 00:35:35;;;;;;;7.77;3.27;;;;;;;-145.18;100.00;47314.81;5065560;28;20453;-71
2021/12/31 00:38:01;;;;;;;5.77;2.40;;;;;;;-145.18;100.00;47326.53;5066978;28;20036;-71
2021/12/31 00:40:27;;;;;;;7.33;2.17;;;;;;;-145.18;100.00;47328.50;5065779;28;20080;-71
2021/12/31 00:42:53;;;;;;;8.70;2.90;;;;;;;-145.18;100.00;47332.41;5066129;28;20040;-71
2021/12/31 00:45:24;;;;;;;8.93;2.90;;;;;;;-145.18;100.00;47320.69;5066907;28;20456;-71
2021/12/31 00:47:50;;;;;;;9.00;2.43;;;;;;;-145.18;100.00;47320.69;5066474;28;20139;-71
2021/12/31 00:50:17;;;;;;;14.17;2.70;;;;;;;-145.18;100.00;47320.69;5068483;28;20115;-71
2021/12/31 00:52:42;;;;;;;5.53;2.63;;;;;;;-145.18;100.00;47330.44;5070219;28;20128;-71
2021/12/31 00:55:09;;;;;;;8.07;2.27;;;;;;;-145.18;100.00;47332.41;5070398;28;20120;-71
2021/12/31 00:57:35;;;;;;;7.23;2.67;;;;;;;-145.18;100.00;47305.06;5070128;28;20048;-71
2021/12/31 01:00:02;;;;;;;9.20;2.73;;;;;;;-145.18;100.00;47318.72;5070265;28;20043;-71
2021/12/31 01:02:28;;;;;;;7.10;2.43;;;;;;;-145.18;100.00;47310.91;5069722;28;20459;-71
2021/12/31 01:04:54;;;;;;;9.90;2.50;;;;;;;-145.18;100.00;47326.53;5070195;28;20033;-71
2021/12/31 01:07:20;;;;;;;6.67;2.57;;;;;;;-145.18;100.00;47310.91;5070227;28;20056;-71
2021/12/31 01:09:45;;;;;;;8.10;2.83;;;;;;;-145.18;100.00;47307.00;5069490;28;20033;-71
2021/12/31 01:12:13;;;;;;;5.93;2.47;;;;;;;-145.18;100.00;47305.06;5070076;28;20037;-71
2021/12/31 01:14:53;;;;;;;10.30;2.63;;;;;;;-145.18;100.00;47336.31;5069688;28;20198;-70
2021/12/31 01:17:25;;;;;;;14.90;3.10;;;;;;;-145.18;100.00;47332.41;5070243;28;20441;-71
2021/12/31 01:19:50;;;;;;;7.20;2.40;;;;;;;-145.18;100.00;47340.22;5069527;28;20066;-71
2021/12/31 01:22:16;;;;;;;9.53;2.63;;;;;;;-145.18;100.00;47326.53;5069854;28;20486;-71
2021/12/31 01:24:42;;;;;;;10.23;3.10;;;;;;;-145.18;100.00;47320.69;5069353;28;20494;-71
2021/12/31 01:27:08;;;;;;;4.70;2.13;;;;;;;-145.18;100.00;47330.44;5068607;28;20067;-71
2021/12/31 01:29:34;;;;;;;5.53;2.37;;;;;;;-145.18;100.00;47336.31;5070442;28;20043;-71
2021/12/31 01:31:59;;;;;;;5.27;2.33;;;;;;;-145.18;100.00;47318.72;5069521;28;20413;-71
2021/12/31 01:34:24;;;;;;;9.77;2.63;;;;;;;-145.18;100.00;47322.63;5069749;28;20155;-71
2021/12/31 01:36:51;;;;;;;7.90;3.03;;;;;;;-145.18;100.00;47332.41;5069183;28;20045;-71
2021/12/31 01:39:17;;;;;;;7.70;2.60;;;;;;;-145.18;100.00;47312.88;5069911;28;20033;-71
2021/12/31 01:41:42;;;;;;;7.97;2.67;;;;;;;-145.18;100.00;47332.41;5069138;28;20048;-71
2021/12/31 01:44:08;;;;;;;5.13;2.33;;;;;;;-145.18;100.00;47332.41;5070285;28;20044;-71
2021/12/31 01:46:36;;;;;;;8.77;2.67;;;;;;;-145.18;100.00;47297.22;5068948;28;20075;-71
2021/12/31 01:49:03;;;;;;;6.97;2.83;;;;;;;-145.18;100.00;47324.59;5069491;28;20087;-71
2021/12/31 01:51:30;;;;;;;6.93;2.70;;;;;;;-145.18;100.00;47326.53;5069245;28;20044;-72
2021/12/31 01:53:55;;;;;;;7.73;2.50;;;;;;;-145.18;100.00;47316.78;5069216;28;20071;-71
2021/12/31 01:56:22;;;;;;;6.23;2.83;;;;;;;-145.18;100.00;47324.59;5069229;28;20068;-71
2021/12/31 01:58:54;;;;;;;5.67;2.40;;;;;;;-145.18;100.00;47330.44;5069286;28;20401;-71
2021/12/31 02:01:21;;;;;;;14.97;3.13;;;;;;;-145.18;100.00;47314.81;5069129;28;20078;-71
2021/12/31 02:03:46;;;;;;;8.97;2.77;;;;;;;-145.18;100.00;47307.00;5069258;28;20523;-72
2021/12/31 02:06:11;;;;;;;9.90;2.83;;;;;;;-145.18;100.00;47332.41;5069388;28;20043;-72
2021/12/31 02:08:37;;;;;;;5.63;2.30;;;;;;;-145.18;100.00;47320.69;5069001;28;20033;-71
2021/12/31 02:11:02;;;;;;;5.73;2.17;;;;;;;-145.18;100.00;47326.53;5068931;28;20556;-72
2021/12/31 02:13:29;;;;;;;9.07;2.90;;;;;;;-145.18;100.00;47320.69;5069069;28;20043;-71
2021/12/31 02:15:54;;;;;;;7.50;2.60;;;;;;;-145.18;100.00;47320.69;5068794;28;20111;-71
2021/12/31 02:18:20;;;;;;;9.27;3.33;;;;;;;-145.18;100.00;47336.31;5068924;28;20167;-72
2021/12/31 02:20:47;;;;;;;9.17;2.23;;;;;;;-145.18;100.00;47324.59;5069235;28;20094;-72
2021/12/31 02:23:17;;;;;;;7.57;2.97;;;;;;;-145.18;100.00;47330.44;5068672;28;20398;-72
2021/12/31 02:25:43;;;;;;;8.23;2.93;;;;;;;-145.18;100.00;47332.41;5068461;28;20043;-71
2021/12/31 02:28:08;;;;;;;6.10;2.17;;;;;;;-145.18;100.00;47332.41;5068691;28;20116;-72
2021/12/31 02:30:33;;;;;;;5.73;2.53;;;;;;;-145.18;100.00;47312.88;5068367;28;20036;-72
2021/12/31 02:32:59;;;;;;;9.70;2.83;;;;;;;-145.18;100.00;47328.50;4981939;28;20039;-72
2021/12/31 02:35:25;;;;;;;7.83;3.30;;;;;;;-145.18;100.00;47334.34;4967112;28;20054;-71
2021/12/31 02:37:51;;;;;;;8.30;2.60;;;;;;;-145.18;100.00;47340.22;4966550;28;20116;-71
2021/12/31 02:40:19;;;;;;;6.57;2.50;;;;;;;-145.18;100.00;47330.44;4966818;28;20454;-72
2021/12/31 02:42:45;;;;;;;10.17;2.80;;;;;;;-145.18;100.00;47314.81;4966891;28;20043;-72
2021/12/31 02:45:12;;;;;;;6.13;2.57;;;;;;;-145.18;100.00;47334.34;4966893;28;20039;-71
2021/12/31 02:47:43;;;;;;;12.73;2.77;;;;;;;-145.18;100.00;47336.31;4967122;28;20042;-72
2021/12/31 02:50:11;;;;;;;7.57;2.43;;;;;;;-145.18;100.00;47328.50;4966842;28;20133;-72
2021/12/31 02:52:37;;;;;;;13.77;3.27;;;;;;;-145.18;100.00;47330.44;4966916;28;20502;-72
2021/12/31 02:55:03;;;;;;;7.93;2.67;;;;;;;-145.18;100.00;47316.78;4966600;28;20043;-72
2021/12/31 02:57:28;;;;;;;11.93;2.87;;;;;;;-145.18;100.00;47330.44;4967033;28;20072;-72
2021/12/31 02:59:54;;;;;;;12.40;2.97;;;;;;;-145.18;100.00;47340.22;4967649;28;20561;-72
2021/12/31 03:02:24;;;;;;;11.03;2.57;;;;;;;-145.18;100.00;47326.53;4966216;28;20172;-72
2021/12/31 03:04:52;;;;;;;10.07;2.77;;;;;;;-145.18;100.00;47334.34;4966747;28;20074;-72
2021/12/31 03:07:19;;;;;;;9.17;2.80;;;;;;;-145.18;100.00;47328.50;4965355;28;20041;-72
2021/12/31 03:09:47;;;;;;;7.67;2.53;;;;;;;-145.18;100.00;47336.31;4966784;28;20031;-72
2021/12/31 03:12:16;;;;;;;5.07;2.20;;;;;;;-145.18;100.00;47318.72;4965265;28;20046;-72
2021/12/31 03:14:47;;;;;;;11.40;2.40;;;;;;;-145.18;100.00;47332.41;4966201;28;20042;-72
2021/12/31 03:17:14;;;;;;;8.90;2.70;;;;;;;-145.18;100.00;47322.63;4966401;28;20038;-71
2021/12/31 03:19:39;;;;;;;7.63;2.40;;;;;;;-145.18;100.00;47322.63;4966653;28;20038;-72
2021/12/31 03:22:05;;;;;;;8.77;2.70;;;;;;;-145.18;100.00;47328.50;4951203;28;20032;-72
2021/12/31 03:24:32;;;;;;;9.47;2.37;;;;;;;-145.18;100.00;47324.59;4947657;28;20070;-72
2021/12/31 03:26:58;;;;;;;9.80;2.80;;;;;;;-145.18;100.00;47322.63;4946970;28;20045;-71
2021/12/31 03:29:23;;;;;;;7.87;2.17;;;;;;;-145.18;100.00;47326.53;4947630;28;20040;-72
2021/12/31 03:31:49;;;;;;;6.93;2.13;;;;;;;-145.18;100.00;47340.22;4946939;28;20043;-72
2021/12/31 03:34:14;;;;;;;5.93;2.43;;;;;;;-145.18;100.00;47326.53;4947271;28;20039;-72
2021/12/31 03:36:43;;;;;;;10.40;2.83;;;;;;;-145.18;100.00;47332.41;4946500;28;20113;-72
2021/12/31 03:39:09;;;;;;;6.53;2.57;;;;;;;-145.18;100.00;47338.25;4947379;28;20558;-72
2021/12/31 03:41:35;;;;;;;7.93;2.57;;;;;;;-145.18;100.00;47312.88;4947201;28;20069;-72
2021/12/31 03:44:01;;;;;;;8.27;2.40;;;;;;;-145.18;100.00;47318.72;4947117;28;20058;-72
2021/12/31 03:46:26;;;;;;;6.50;2.30;;;;;;;-145.18;100.00;47314.81;4947018;28;20050;-72
2021/12/31 03:48:52;;;;;;;8.77;2.20;;;;;;;-145.18;100.00;47328.50;4946925;28;20054;-72
2021/12/31 03:51:17;;;;;;;6.07;2.20;;;;;;;-145.18;100.00;47322.63;4946570;28;20039;-72
2021/12/31 03:53:43;;;;;;;7.30;2.07;;;;;;;-145.18;100.00;47326.53;4946496;28;20490;-73
2021/12/31 03:56:08;;;;;;;8.27;2.30;;;;;;;-145.18;100.00;47320.69;4947571;28;20554;-72
2021/12/31 03:58:33;;;;;;;9.80;2.93;;;;;;;-145.18;100.00;47324.59;4946509;28;20055;-73
2021/12/31 04:00:59;;;;;;;9.00;3.03;;;;;;;-145.18;100.00;47334.34;4946491;28;20412;-74
2021/12/31 04:03:24;;;;;;;6.57;2.57;;;;;;;-145.18;100.00;47340.22;4946661;28;20047;-74
2021/12/31 04:05:50;;;;;;;6.57;2.40;;;;;;;-145.18;100.00;47328.50;4946728;28;20054;-74
2021/12/31 04:08:15;;;;;;;10.87;2.77;;;;;;;-145.18;100.00;47340.22;4946880;28;20047;-74
2021/12/31 04:10:41;;;;;;;5.27;2.27;;;;;;;-145.18;100.00;47334.34;4945549;28;20050;-74
2021/12/31 04:13:06;;;;;;;8.50;2.67;;;;;;;-145.18;100.00;47332.41;4946386;28;20144;-74
2021/12/31 04:15:32;;;;;;;7.97;2.67;;;;;;;-145.18;100.00;47357.78;4946525;28;20055;-74
2021/12/31 04:17:57;;;;;;;6.73;2.63;;;;;;;-145.18;100.00;47320.69;4946598;28;20040;-74
2021/12/31 04:20:35;;;;;;;6.63;3.03;;;;;;;-145.18;100.00;47328.50;4946648;28;20047;-74
2021/12/31 04:23:03;;;;;;;6.13;2.43;;;;;;;-145.18;100.00;47332.41;4946613;28;20145;-74
2021/12/31 04:25:29;;;;;;;11.40;2.43;;;;;;;-145.18;100.00;47328.50;4948344;28;20101;-74
2021/12/31 04:27:54;;;;;;;3.63;2.10;;;;;;;-145.18;100.00;47330.44;4949989;28;20516;-74
2021/12/31 04:30:20;;;;;;;7.47;2.00;;;;;;;-145.18;100.00;47328.50;4950082;28;20043;-74
2021/12/31 04:32:46;;;;;;;7.50;2.40;;;;;;;-145.18;100.00;47324.59;4990123;28;20043;-74
2021/12/31 04:35:12;;;;;;;6.77;2.97;;;;;;;-145.18;100.00;47330.44;4962396;28;20516;-74
2021/12/31 04:37:39;;;;;;;7.53;2.43;;;;;;;-145.18;100.00;47312.88;4972138;28;20043;-74
2021/12/31 04:40:09;;;;;;;8.93;2.73;;;;;;;-145.18;100.00;47322.63;4977192;28;20040;-74
2021/12/31 04:42:34;;;;;;;8.57;2.50;;;;;;;-145.18;100.00;47330.44;4951941;28;20455;-74
2021/12/31 04:45:00;;;;;;;10.77;2.67;;;;;;;-145.18;100.00;47326.53;4949887;28;20043;-74
2021/12/31 04:47:25;;;;;;;10.77;2.87;;;;;;;-145.18;100.00;47320.69;4967303;28;20097;-74
2021/12/31 04:49:50;;;;;;;5.47;2.17;;;;;;;-145.18;100.00;47326.53;5056877;28;20048;-74
2021/12/31 04:52:16;;;;;;;8.40;3.53;;;;;;;-145.18;100.00;47342.16;4989159;28;20107;-74
2021/12/31 04:54:41;;;;;;;7.33;2.30;;;;;;;-145.18;100.00;47355.84;4981432;28;20073;-74
2021/12/31 04:57:06;;;;;;;9.57;3.07;;;;;;;-145.18;100.00;47340.22;4999413;28;20477;-74
2021/12/31 04:59:32;;;;;;;6.37;2.17;;;;;;;-145.18;100.00;47330.44;5031166;28;20070;-74
2021/12/31 05:01:57;;;;;;;7.23;2.70;;;;;;;-145.18;100.00;47344.13;5024792;28;20040;-74
2021/12/31 05:04:22;;;;;;;10.57;3.13;;;;;;;-145.18;100.00;47328.50;5010161;28;20043;-74
2021/12/31 05:06:50;;;;;;;9.37;2.90;;;;;;;-145.18;100.00;47336.31;4977706;28;20154;-74
2021/12/31 05:09:15;;;;;;;6.57;2.97;;;;;;;-145.18;100.00;47330.44;5069921;28;20036;-74
2021/12/31 05:11:41;;;;;;;9.10;2.47;;;;;;;-145.18;100.00;47320.69;5069099;28;20043;-74
2021/12/31 05:14:06;;;;;;;8.40;2.23;;;;;;;-145.18;100.00;47338.25;4971989;28;20043;-74
2021/12/31 05:16:35;;;;;;;5.83;2.27;;;;;;;-145.18;100.00;47324.59;5003076;28;20441;-74
2021/12/31 05:19:00;;;;;;;9.00;3.17;;;;;;;-145.18;100.00;47312.88;4980204;28;20539;-74
2021/12/31 05:21:26;;;;;;;12.80;2.50;;;;;;;-145.18;100.00;47318.72;5023815;28;20037;-75
2021/12/31 05:23:51;;;;;;;7.63;2.30;;;;;;;-145.18;100.00;47326.53;5069658;28;20040;-74
2021/12/31 05:26:16;;;;;;;7.37;2.40;;;;;;;-145.18;100.00;47318.72;5069462;28;20119;-74
2021/12/31 05:28:42;;;;;;;6.00;2.63;;;;;;;-145.18;100.00;47332.41;5069735;28;20047;-74
2021/12/31 05:31:08;;;;;;;8.57;3.03;;;;;;;-145.18;100.00;47348.03;5069817;28;20033;-74
2021/12/31 05:33:34;;;;;;;5.60;2.30;;;;;;;-145.18;100.00;47338.25;5069343;28;20607;-74
2021/12/31 05:36:00;;;;;;;6.20;3.07;;;;;;;-145.18;100.00;47334.34;5069566;28;20041;-74
2021/12/31 05:38:26;;;;;;;10.40;3.07;;;;;;;-145.18;100.00;47340.22;5069869;28;20051;-74
2021/12/31 05:40:51;;;;;;;7.77;2.77;;;;;;;-145.18;100.00;47324.59;5069376;28;20071;-74
2021/12/31 05:43:17;;;;;;;8.70;2.77;;;;;;;-145.18;100.00;47338.25;5069550;28;20036;-74
2021/12/31 05:45:42;;;;;;;5.77;2.30;;;;;;;-145.18;100.00;47336.31;5069054;28;20056;-74
2021/12/31 05:48:07;;;;;;;7.43;2.80;;;;;;;-145.18;100.00;47336.31;5069412;28;20111;-74
2021/12/31 05:50:33;;;;;;;22.40;4.17;;;;;;;-145.18;100.00;47340.22;5052017;28;20052;-74
2021/12/31 05:53:00;;;;;;;7.43;2.33;;;;;;;-145.18;100.00;47332.41;5065671;28;20071;-75
2021/12/31 05:55:26;;;;;;;8.30;2.30;;;;;;;-145.18;100.00;47332.41;4947692;28;20046;-74
2021/12/31 05:57:52;;;;;;;5.43;1.90;;;;;;;-145.18;100.00;47353.88;4949638;28;20054;-74
2021/12/31 06:00:18;;;;;;;10.77;2.37;;;;;;;-145.18;100.00;47336.31;4947933;28;20043;-74
2021/12/31 06:02:44;;;;;;;7.20;2.13;;;;;;;-145.18;100.00;47336.31;4947244;28;20071;-74
2021/12/31 06:05:10;;;;;;;5.53;2.07;;;;;;;-145.18;100.00;47349.97;4948674;28;20051;-74
2021/12/31 06:07:35;;;;;;;6.30;2.30;;;;;;;-145.18;100.00;47328.50;4949736;28;20043;-74
2021/12/31 06:10:01;;;;;;;7.10;1.97;;;;;;;-145.18;100.00;47340.22;4950144;28;20031;-74
2021/12/31 06:12:27;;;;;;;6.87;2.33;;;;;;;-145.18;100.00;47342.16;4947295;28;20098;-74
2021/12/31 06:14:54;;;;;;;6.80;2.63;;;;;;;-145.18;100.00;47332.41;4948315;28;20047;-74
2021/12/31 06:17:25;;;;;;;4.83;2.57;;;;;;;-145.18;100.00;47357.78;4948134;28;20035;-74
2021/12/31 06:19:51;;;;;;;7.27;3.00;;;;;;;-145.18;100.00;47336.31;4948391;28;20039;-74
2021/12/31 06:22:17;;;;;;;4.87;2.17;;;;;;;-145.18;100.00;47346.06;4948120;28;20031;-74
2021/12/31 06:24:42;;;;;;;10.00;2.20;;;;;;;-145.18;100.00;47344.13;4948375;28;20656;-74
2021/12/31 06:27:08;;;;;;;5.50;2.23;;;;;;;-145.18;100.00;47363.66;4948040;28;20126;-74
2021/12/31 06:29:34;;;;;;;9.27;2.80;;;;;;;-145.18;100.00;47381.25;4948151;28;20523;-72
2021/12/31 06:31:59;;;;;;;7.47;2.30;;;;;;;-145.18;100.00;47344.13;4947877;28;20035;-75
2021/12/31 06:34:25;;;;;;;7.57;2.60;;;;;;;-145.18;100.00;47361.72;4948383;28;20504;-76
2021/12/31 06:36:50;;;;;;;14.03;3.23;;;;;;;-145.18;100.00;47363.66;4948693;28;20176;-74
2021/12/31 06:39:16;;;;;;;7.40;2.60;;;;;;;-145.18;100.00;47355.84;4949352;28;20039;-75
2021/12/31 06:41:42;;;;;;;7.30;2.17;;;;;;;-145.18;100.00;47371.47;4966481;28;20499;-74
2021/12/31 06:44:07;;;;;;;7.53;3.00;;;;;;;-145.18;100.00;47367.56;4967065;28;20163;-75
2021/12/31 06:46:32;;;;;;;6.07;2.40;;;;;;;-145.18;100.00;47381.25;4966267;28;20137;-75
2021/12/31 06:48:58;;;;;;;8.73;2.83;;;;;;;-145.18;100.00;47344.13;4965246;28;20073;-74
2021/12/31 06:51:23;;;;;;;7.80;3.50;;;;;;;-145.18;100.00;47359.75;4966169;28;20122;-75
2021/12/31 06:53:49;;;;;;;5.83;2.43;;;;;;;-145.18;100.00;47371.47;4967305;28;20495;-75
2021/12/31 06:56:14;;;;;;;9.57;3.33;;;;;;;-145.18;100.00;47361.72;4966909;28;20069;-75
2021/12/31 06:58:39;;;;;;;8.37;3.00;;;;;;;-145.18;100.00;47357.78;4966846;28;20050;-75
2021/12/31 07:01:05;;;;;;;8.40;2.93;;;;;;;-145.18;100.00;47338.25;4966783;28;20046;-75
2021/12/31 07:03:31;;;;;;;6.27;2.53;;;;;;;-145.18;100.00;47365.63;4966863;28;20155;-75
2021/12/31 07:05:57;;;;;;;7.47;2.90;;;;;;;-145.18;100.00;47349.97;4966726;28;20065;-75
2021/12/31 07:08:22;;;;;;;5.20;2.53;;;;;;;-145.18;100.00;47359.75;4967216;28;20046;-75
2021/12/31 07:10:48;;;;;;;7.60;2.67;;;;;;;-145.18;100.00;47367.56;4966570;28;20077;-75
2021/12/31 07:13:13;;;;;;;5.43;2.40;;;;;;;-145.18;100.00;47371.47;4966278;28;20081;-75
2021/12/31 07:15:50;;;;;;;7.70;2.97;;;;;;;-145.18;100.00;47385.16;4965182;28;20031;-75
2021/12/31 07:18:20;;;;;;;11.13;3.80;;;;;;;-145.18;100.00;47367.56;4985820;28;20031;-75
2021/12/31 07:20:46;;;;;;;7.13;2.77;;;;;;;-145.18;100.00;47355.84;4985341;28;20499;-75
2021/12/31 07:23:15;;;;;;;10.87;3.33;;;;;;;-145.18;100.00;47355.84;4984279;28;20408;-75
2021/12/31 07:25:41;;;;;;;6.90;2.90;;;;;;;-145.18;100.00;47359.75;4984377;28;20030;-75
2021/12/31 07:28:08;;;;;;;8.90;3.40;;;;;;;-145.18;100.00;47367.56;4985478;28;20045;-75
2021/12/31 07:30:34;;;;;;;6.13;2.87;;;;;;;-145.18;100.00;47363.66;4984047;28;20121;-75
2021/12/31 07:33:00;;;;;;;9.20;3.03;;;;;;;-145.18;100.00;47365.63;4985918;28;20082;-75
2021/12/31 07:35:25;;;;;;;13.43;3.40;;;;;;;-145.18;100.00;47381.25;4985802;28;20043;-75
2021/12/31 07:37:55;;;;;;;7.07;3.27;;;;;;;-145.18;100.00;47359.75;4966080;28;20462;-75
2021/12/31 07:40:53;;;;;;;7.37;2.70;;;;;;;-145.18;100.00;47355.84;4966414;28;20051;-75
2021/12/31 07:43:12;;;;;;;8.40;3.20;;;;;;;-145.18;100.00;47351.94;4965461;28;20447;-74
2021/12/31 07:45:38;;;;;;;9.80;3.77;;;;;;;-145.18;100.00;47334.34;4966183;28;20051;-74
2021/12/31 07:48:04;;;;;;;5.60;2.93;;;;;;;-145.18;100.00;47353.88;4965848;28;20039;-74
2021/12/31 07:50:30;;;;;;;5.80;2.13;;;;;;;-145.18;100.00;47377.34;4965804;28;20100;-75
2021/12/31 07:52:57;;;;;;;12.27;3.30;;;;;;;-145.18;100.00;47365.63;4965957;28;20469;-75
2021/12/31 07:55:23;;;;;;;8.97;4.13;;;;;;;-145.18;100.00;47385.16;4966376;28;20051;-75
2021/12/31 07:57:48;;;;;;;9.13;4.17;;;;;;;-145.18;100.00;47365.63;4966294;28;20039;-75
2021/12/31 08:00:14;;;;;;;7.03;3.37;;;;;;;-145.18;100.00;47363.66;4965999;28;20133;-75
2021/12/31 08:02:40;;;;;;;8.80;3.80;;;;;;;-145.18;100.00;47357.78;4965305;28;20046;-75
2021/12/31 08:05:06;;;;;;;10.30;3.10;;;;;;;-145.18;100.00;47375.38;4965535;28;20521;-75
2021/12/31 08:07:31;;;;;;;5.03;2.70;;;;;;;-145.18;100.00;47355.84;4964293;28;20561;-75
2021/12/31 08:09:57;;;;;;;7.00;2.83;;;;;;;-145.18;100.00;47375.38;4965639;28;20125;-75
2021/12/31 08:12:22;;;;;;;7.17;3.13;;;;;;;-145.18;100.00;47363.66;4966134;28;20053;-75
2021/12/31 08:14:48;;;;;;;8.03;3.80;;;;;;;-145.18;100.00;47349.97;4965710;28;20050;-75
2021/12/31 08:17:13;;;;;;;11.77;4.07;;;;;;;-145.18;100.00;47377.34;4965607;28;20116;-75
2021/12/31 08:19:39;;;;;;;7.13;3.47;;;;;;;-145.18;100.00;47357.78;4965916;28;20518;-74
2021/12/31 08:22:04;;;;;;;5.33;2.80;;;;;;;-145.18;100.00;47377.34;4965430;28;20043;-74
2021/12/31 08:24:29;;;;;;;13.37;3.70;;;;;;;-145.18;100.00;47363.66;4960998;28;20047;-74
2021/12/31 08:26:56;;;;;;;15.17;3.83;;;;;;;-145.18;100.00;47355.84;4946398;28;20126;-74
2021/12/31 08:29:21;;;;;;;6.57;3.10;;;;;;;-145.18;100.00;47365.63;4978107;28;20477;-74
2021/12/31 08:31:46;;;;;;;11.43;3.07;;;;;;;-145.18;100.00;47355.84;4957551;28;20047;-74
2021/12/31 08:34:12;;;;;;;5.73;3.40;;;;;;;-145.18;100.00;47346.06;4963646;28;20051;-74
2021/12/31 08:36:38;;;;;;;6.87;2.80;;;;;;;-145.18;100.00;47357.78;4966712;28;20541;-74
2021/12/31 08:39:07;;;;;;;6.73;3.17;;;;;;;-145.18;100.00;47365.63;4979191;28;20738;-74
2021/12/31 08:41:35;;;;;;;7.03;3.20;;;;;;;-145.18;100.00;47369.53;4968996;28;20395;-74
2021/12/31 08:44:01;;;;;;;9.63;3.63;;;;;;;-145.18;100.00;47361.72;4969969;28;20527;-74
2021/12/31 08:46:26;;;;;;;9.30;3.30;;;;;;;-145.18;100.00;47363.66;4989726;28;20058;-74
2021/12/31 08:48:52;;;;;;;6.47;2.83;;;;;;;-145.18;100.00;47359.75;4970747;28;20130;-74
2021/12/31 08:51:18;;;;;;;7.67;2.90;;;;;;;-145.18;100.00;47369.53;4979209;28;20047;-74
2021/12/31 08:53:44;;;;;;;5.37;2.80;;;;;;;-145.18;100.00;47369.53;4974326;28;20093;-75
2021/12/31 08:56:09;;;;;;;9.67;3.50;;;;;;;-145.18;100.00;47363.66;4976239;28;20553;-74
2021/12/31 08:58:34;;;;;;;7.47;2.80;;;;;;;-145.18;100.00;47363.66;4971622;28;20047;-74
2021/12/31 09:01:00;;;;;;;10.20;3.40;;;;;;;-145.18;100.00;47342.16;4978931;28;20099;-74
2021/12/31 09:03:25;;;;;;;9.00;3.07;;;;;;;-145.18;100.00;47367.56;4978824;28;20047;-74
2021/12/31 09:05:50;;;;;;;6.03;2.80;;;;;;;-145.18;100.00;47361.72;4948000;28;20047;-74
2021/12/31 09:08:16;;;;;;;8.90;3.63;;;;;;;-145.18;100.00;47344.13;4948057;28;20056;-74
2021/12/31 09:10:42;;;;;;;12.27;3.17;;;;;;;-145.18;100.00;47359.75;4950932;28;20104;-74
2021/12/31 09:13:07;;;;;;;10.57;3.43;;;;;;;-145.18;100.00;47348.03;4958937;28;20106;-74
2021/12/31 09:15:32;;;;;;;8.27;3.03;;;;;;;-145.18;100.00;47348.03;4988586;28;20040;-74
2021/12/31 09:17:58;;;;;;;5.30;3.03;;;;;;;-145.18;100.00;47349.97;5069779;28;20052;-74
2021/12/31 09:20:23;;;;;;;11.03;3.27;;;;;;;-145.18;100.00;47344.13;5069850;28;20064;-75
2021/12/31 09:22:49;;;;;;;8.50;3.13;;;;;;;-145.18;100.00;47357.78;5069278;28;20050;-74
2021/12/31 09:25:15;;;;;;;9.07;3.17;;;;;;;-145.18;100.00;47353.88;5040172;28;20485;-75
2021/12/31 09:27:41;;;;;;;7.30;3.13;;;;;;;-145.18;100.00;47344.13;5068718;28;20040;-75
2021/12/31 09:30:08;;;;;;;6.53;2.70;;;;;;;-145.18;100.00;47344.13;5040644;28;20102;-75
2021/12/31 09:32:34;;;;;;;5.90;3.10;;;;;;;-145.18;100.00;47353.88;4968594;28;20059;-75
2021/12/31 09:35:00;;;;;;;8.67;2.87;;;;;;;-145.18;100.00;47338.25;4949003;28;20422;-74
2021/12/31 09:37:25;;;;;;;7.70;3.03;;;;;;;-145.18;100.00;47357.78;4949039;28;20050;-75
2021/12/31 09:39:50;;;;;;;6.70;3.10;;;;;;;-145.18;100.00;47363.66;4950909;28;20808;-75
2021/12/31 09:42:16;;;;;;;6.30;2.90;;;;;;;-145.18;100.00;47348.03;4968075;28;20660;-75
2021/12/31 09:44:46;;;;;;;6.67;3.13;;;;;;;-145.18;100.00;47355.84;4967645;28;20039;-75
2021/12/31 09:47:13;;;;;;;6.80;3.10;;;;;;;-145.18;100.00;47357.78;4967803;28;20038;-74
2021/12/31 09:49:39;;;;;;;6.20;3.00;;;;;;;-145.18;100.00;47346.06;4966928;28;20134;-75
2021/12/31 09:52:09;;;;;;;6.27;2.97;;;;;;;-145.18;100.00;47328.50;4968002;28;20039;-74
2021/12/31 09:54:34;;;;;;;4.93;2.97;;;;;;;-145.18;100.00;47373.44;4967272;28;20050;-75
2021/12/31 09:57:02;;;;;;;6.80;3.63;;;;;;;-145.18;100.00;47365.63;4996674;28;20043;-74
2021/12/31 09:59:28;;;;;;;10.10;3.70;;;;;;;-145.18;100.00;47361.72;4968915;28;20404;-74
2021/12/31 10:01:55;;;;;;;7.53;3.77;;;;;;;-145.18;100.00;47349.97;4952070;28;20053;-74
2021/12/31 10:04:22;;;;;;;7.33;3.40;;;;;;;-145.18;100.00;47371.47;4948977;28;20047;-74
2021/12/31 10:07:12;;;;;;;6.30;3.10;;;;;;;-145.18;100.00;47348.03;4948053;28;20054;-74
2021/12/31 10:09:40;;;;;;;10.73;3.97;;;;;;;-145.18;100.00;47367.56;4948408;28;20523;-73
2021/12/31 10:12:07;;;;;;;7.00;3.20;;;;;;;-145.18;100.00;47328.50;4948360;28;20404;-74
2021/12/31 10:14:37;;;;;;;8.03;3.30;;;;;;;-145.18;100.00;47355.84;4947600;28;20048;-74
2021/12/31 10:17:05;;;;;;;8.20;3.77;;;;;;;-145.18;100.00;47336.31;4950195;28;20043;-73
2021/12/31 10:19:31;;;;;;;11.10;3.40;;;;;;;-145.18;100.00;47355.84;4948348;28;20104;-73
2021/12/31 10:21:56;;;;;;;10.30;3.33;;;;;;;-145.18;100.00;47340.22;4946739;28;20046;-73
2021/12/31 10:24:32;;;;;;;7.33;3.00;;;;;;;-145.18;100.00;47357.78;4948191;28;20510;-73
2021/12/31 10:27:02;;;;;;;10.50;3.10;;;;;;;-145.18;100.00;47346.06;4947950;28;20086;-73
2021/12/31 10:29:27;;;;;;;6.97;3.00;;;;;;;-145.18;100.00;47322.63;4949786;28;20489;-73
2021/12/31 10:31:54;;;;;;;9.07;3.30;;;;;;;-145.18;100.00;47340.22;4949313;28;20055;-73
2021/12/31 10:34:27;;;;;;;9.53;3.60;;;;;;;-145.18;100.00;47338.25;4957904;28;20538;-73
2021/12/31 10:36:52;;;;;;;8.47;3.00;;;;;;;-145.18;100.00;47336.31;4967149;28;20055;-74
2021/12/31 10:39:24;;;;;;;4.90;3.60;;;;;;;-145.18;100.00;47340.22;4966491;28;20050;-73
2021/12/31 10:41:51;;;;;;;9.33;3.80;;;;;;;-145.18;100.00;47353.88;4966620;28;20504;-73
2021/12/31 10:44:17;;;;;;;8.73;3.23;;;;;;;-145.18;100.00;47348.03;4962715;28;20047;-73
2021/12/31 10:46:42;;;;;;;9.97;3.63;;;;;;;-145.18;100.00;47332.41;4962731;28;20066;-73
2021/12/31 10:49:11;;;;;;;11.70;3.60;;;;;;;-145.18;100.00;47340.22;4952994;28;20069;-73
2021/12/31 10:51:47;;;;;;;10.33;3.40;;;;;;;-145.18;100.00;47336.31;4966605;28;20039;-73
2021/12/31 10:54:17;;;;;;;;;;;;;;;-145.18;100.00;47332.41;4967069;28;20035;-73
2021/12/31 10:56:42;;;;;;;7.37;2.87;;;;;;;-145.18;100.00;47316.78;4966246;28;19922;-73
2021/12/31 10:59:07;;;;;;;7.50;3.37;;;;;;;-145.18;100.00;47312.88;4966912;28;20038;-73
2021/12/31 11:01:33;;;;;;;8.50;3.60;;;;;;;-145.18;100.00;47308.97;4967101;28;20600;-73
2021/12/31 11:03:58;;;;;;;12.53;3.80;;;;;;;-145.18;100.00;47305.06;4966472;28;20035;-73